createdAt,value
2018-04-26T00:00:45.264Z,79.59
2018-04-26T00:01:44.448Z,79.98
2018-04-26T00:02:43.919Z,79.82
2018-04-26T00:03:43.877Z,79.71
2018-04-26T00:04:44.468Z,79.83
2018-04-26T00:05:44.790Z,79.35
2018-04-26T00:06:44.254Z,79.35
2018-04-26T00:07:43.953Z,80.16
2018-04-26T00:08:44.033Z,81.21
2018-04-26T00:09:44.060Z,80.41
2018-04-26T00:10:43.975Z,80.56
2018-04-26T00:11:44.590Z,80.36
2018-04-26T00:12:44.029Z,81.39
2018-04-26T00:13:43.910Z,80.9
2018-04-26T00:14:44.326Z,80.65
2018-04-26T00:15:44.091Z,80.81
2018-04-26T00:16:44.210Z,80.51
2018-04-26T00:17:43.869Z,81.15
2018-04-26T00:18:44.327Z,80.19
2018-04-26T00:19:43.887Z,80.58
2018-04-26T00:20:44.236Z,80.46
2018-04-26T00:21:43.862Z,81.1
2018-04-26T00:22:44.075Z,80.66
2018-04-26T00:23:44.071Z,80.65
2018-04-26T00:24:44.898Z,80.33
2018-04-26T00:25:44.033Z,80.3
2018-04-26T00:26:44.042Z,80.18
2018-04-26T00:27:44.151Z,81.03
2018-04-26T00:28:44.428Z,80.53
2018-04-26T00:29:43.961Z,80.94
2018-04-26T00:30:43.931Z,80.52
2018-04-26T00:31:43.940Z,80.56
2018-04-26T00:32:44.425Z,80.11
2018-04-26T00:33:44.639Z,80.36
2018-04-26T00:34:43.878Z,80.02
2018-04-26T00:35:44.287Z,80.32
2018-04-26T00:36:43.939Z,80.52
2018-04-26T00:37:43.934Z,80.27
2018-04-26T00:38:44.484Z,79.66
2018-04-26T00:39:43.991Z,79.28
2018-04-26T00:40:43.918Z,79.07
2018-04-26T00:41:45.200Z,78.81
2018-04-26T00:42:45.617Z,78.69
2018-04-26T00:43:44.127Z,77.96
2018-04-26T00:44:43.970Z,77.65
2018-04-26T00:45:44.100Z,77.9
2018-04-26T00:46:46.526Z,77.69
2018-04-26T00:47:45.863Z,77.73
2018-04-26T00:48:43.988Z,77.78
2018-04-26T00:49:44.164Z,77.39
2018-04-26T00:50:43.893Z,78.07
2018-04-26T00:51:44.560Z,78.03
2018-04-26T00:52:45.100Z,77.18
2018-04-26T00:53:44.360Z,78.2
2018-04-26T00:54:44.146Z,77.57
2018-04-26T00:55:43.955Z,77.4
2018-04-26T00:56:44.280Z,77.37
2018-04-26T00:57:44.083Z,76.95
2018-04-26T00:58:44.498Z,77.01
2018-04-26T00:59:44.748Z,76.86
2018-04-26T01:00:44.051Z,76.68
2018-04-26T01:01:44.746Z,76.65
2018-04-26T01:02:43.920Z,76.39
2018-04-26T01:03:45.380Z,76.4
2018-04-26T01:04:43.914Z,76.57
2018-04-26T01:05:44.547Z,76.52
2018-04-26T01:06:43.903Z,76.64
2018-04-26T01:07:44.138Z,76.6
2018-04-26T01:08:44.466Z,76.55
2018-04-26T01:09:43.924Z,76.63
2018-04-26T01:10:43.954Z,76.35
2018-04-26T01:11:50.349Z,76.56
2018-04-26T01:12:44.901Z,76.6
2018-04-26T01:13:43.988Z,76.48
2018-04-26T01:14:44.108Z,76.35
2018-04-26T01:15:43.945Z,76.3
2018-04-26T01:16:43.981Z,76.51
2018-04-26T01:17:44.083Z,76.34
2018-04-26T01:18:44.071Z,76.53
2018-04-26T01:19:44.105Z,76.76
2018-04-26T01:20:44.187Z,76.55
2018-04-26T01:21:44.250Z,76.43
2018-04-26T01:22:44.354Z,76.37
2018-04-26T01:23:44.668Z,76.14
2018-04-26T01:24:44.575Z,76.07
2018-04-26T01:25:44.027Z,76.6
2018-04-26T01:26:43.976Z,76.82
2018-04-26T01:27:44.083Z,76.45
2018-04-26T01:28:44.328Z,76.66
2018-04-26T01:30:02.076Z,76.42
2018-04-26T01:30:43.944Z,75.77
2018-04-26T01:31:44.733Z,75.81
2018-04-26T01:32:44.815Z,76.8
2018-04-26T01:33:44.728Z,76.13
2018-04-26T01:34:45.053Z,76.44
2018-04-26T01:35:47.011Z,75.64
2018-04-26T01:36:43.929Z,76.21
2018-04-26T01:37:43.947Z,75.77
2018-04-26T01:38:51.941Z,75.57
2018-04-26T01:39:45.298Z,76.28
2018-04-26T01:40:46.147Z,76.19
2018-04-26T01:41:43.972Z,75.75
2018-04-26T01:42:44.017Z,76.04
2018-04-26T01:43:44.702Z,75.71
2018-04-26T01:44:44.395Z,75.5
2018-04-26T01:45:45.127Z,75.57
2018-04-26T01:46:44.727Z,75.18
2018-04-26T01:47:44.027Z,75.69
2018-04-26T01:48:43.901Z,75.37
2018-04-26T01:49:44.077Z,75.8
2018-04-26T01:50:45.696Z,75.48
2018-04-26T01:51:44.246Z,75.56
2018-04-26T01:52:44.078Z,75.59
2018-04-26T01:53:44.311Z,75.38
2018-04-26T01:54:44.586Z,75.25
2018-04-26T01:55:45.537Z,75.88
2018-04-26T01:56:43.977Z,75.64
2018-04-26T01:57:43.926Z,75.76
2018-04-26T01:58:44.267Z,75.47
2018-04-26T01:59:44.511Z,75.18
2018-04-26T02:00:45.254Z,75.48
2018-04-26T02:01:47.071Z,75.22
2018-04-26T02:02:44.135Z,75.86
2018-04-26T02:03:44.346Z,75.06
2018-04-26T02:04:44.436Z,74.98
2018-04-26T02:05:44.874Z,75.5
2018-04-26T02:06:47.446Z,74.98
2018-04-26T02:07:43.946Z,75.27
2018-04-26T02:08:43.964Z,75.52
2018-04-26T02:09:43.997Z,75.31
2018-04-26T02:10:46.014Z,75.25
2018-04-26T02:11:45.405Z,75.65
2018-04-26T02:12:47.315Z,74.66
2018-04-26T02:13:44.139Z,75.16
2018-04-26T02:14:44.322Z,75.43
2018-04-26T02:15:45.107Z,75.01
2018-04-26T02:16:44.942Z,75.38
2018-04-26T02:17:43.950Z,75.29
2018-04-26T02:18:44.090Z,75.26
2018-04-26T02:19:45.372Z,75.42
2018-04-26T02:20:44.127Z,75.14
2018-04-26T02:21:43.985Z,75.05
2018-04-26T02:22:43.987Z,75.27
2018-04-26T02:23:44.317Z,75.55
2018-04-26T02:24:44.991Z,75.4
2018-04-26T02:25:44.203Z,75.29
2018-04-26T02:26:43.973Z,75.33
2018-04-26T02:27:44.119Z,75.61
2018-04-26T02:28:44.421Z,75.18
2018-04-26T02:29:44.617Z,75.24
2018-04-26T02:30:44.104Z,75.17
2018-04-26T02:31:44.172Z,75.39
2018-04-26T02:32:44.275Z,75.56
2018-04-26T02:33:44.708Z,75.74
2018-04-26T02:34:47.003Z,75.78
2018-04-26T02:35:44.348Z,75.73
2018-04-26T02:36:44.230Z,75.35
2018-04-26T02:37:44.366Z,75.2
2018-04-26T02:38:44.575Z,75.22
2018-04-26T02:39:45.845Z,75.52
2018-04-26T02:40:44.284Z,75.57
2018-04-26T02:41:44.338Z,75.85
2018-04-26T02:42:44.700Z,75.19
2018-04-26T02:43:44.610Z,75.33
2018-04-26T02:44:44.433Z,74.83
2018-04-26T02:45:57.554Z,75.1
2018-04-26T02:46:43.983Z,75.23
2018-04-26T02:47:44.147Z,75.07
2018-04-26T02:48:44.088Z,74.25
2018-04-26T02:49:45.155Z,74.07
2018-04-26T02:50:44.361Z,74.3
2018-04-26T02:51:44.107Z,73.85
2018-04-26T02:52:44.050Z,73.81
2018-04-26T02:53:44.579Z,73.89
2018-04-26T02:54:44.484Z,73.88
2018-04-26T02:55:44.795Z,73.84
2018-04-26T02:56:44.939Z,73.83
2018-04-26T02:57:44.603Z,73.62
2018-04-26T02:58:44.461Z,73.96
2018-04-26T02:59:44.284Z,74
2018-04-26T03:00:46.159Z,74.05
2018-04-26T03:01:44.325Z,74.19
2018-04-26T03:02:44.448Z,73.82
2018-04-26T03:03:44.538Z,74.04
2018-04-26T03:04:45.466Z,73.44
2018-04-26T03:05:44.293Z,73.11
2018-04-26T03:06:44.095Z,73.62
2018-04-26T03:07:44.465Z,73.49
2018-04-26T03:08:45.402Z,73.26
2018-04-26T03:09:44.790Z,73.32
2018-04-26T03:10:46.131Z,73.35
2018-04-26T03:11:44.015Z,73.45
2018-04-26T03:12:44.547Z,73.46
2018-04-26T03:13:44.943Z,73.42
2018-04-26T03:14:44.615Z,73.62
2018-04-26T03:15:44.009Z,73.35
2018-04-26T03:16:44.530Z,73.76
2018-04-26T03:17:44.068Z,74.04
2018-04-26T03:18:44.740Z,73.97
2018-04-26T03:19:44.841Z,74.05
2018-04-26T03:20:44.588Z,74.02
2018-04-26T03:21:44.063Z,73.94
2018-04-26T03:22:44.082Z,73.55
2018-04-26T03:23:46.013Z,73.42
2018-04-26T03:24:44.431Z,73.38
2018-04-26T03:25:44.001Z,73.68
2018-04-26T03:26:44.109Z,73.79
2018-04-26T03:27:44.104Z,73.22
2018-04-26T03:28:44.511Z,72.06
2018-04-26T03:29:44.038Z,71.9
2018-04-26T03:30:44.723Z,70.97
2018-04-26T03:31:46.483Z,71.41
2018-04-26T03:32:44.084Z,71.31
2018-04-26T03:33:43.978Z,71.12
2018-04-26T03:34:44.856Z,70.93
2018-04-26T03:35:44.551Z,71.18
2018-04-26T03:36:44.507Z,70.4
2018-04-26T03:37:45.399Z,70.69
2018-04-26T03:38:44.469Z,70.92
2018-04-26T03:39:44.280Z,70.97
2018-04-26T03:40:44.071Z,70.75
2018-04-26T03:41:45.003Z,70.81
2018-04-26T03:42:44.497Z,70.46
2018-04-26T03:43:44.127Z,70.72
2018-04-26T03:44:44.071Z,70.46
2018-04-26T03:45:44.519Z,70.73
2018-04-26T03:46:44.530Z,70.42
2018-04-26T03:47:44.944Z,70.16
2018-04-26T03:48:44.450Z,70.06
2018-04-26T03:49:44.081Z,70.11
2018-04-26T03:50:44.248Z,69.18
2018-04-26T03:51:44.248Z,69.13
2018-04-26T03:52:44.661Z,69.05
2018-04-26T03:53:45.498Z,68.84
2018-04-26T03:54:44.129Z,68.38
2018-04-26T03:55:44.100Z,68.21
2018-04-26T03:56:44.315Z,68.13
2018-04-26T03:57:44.591Z,68.1
2018-04-26T03:58:44.255Z,67.58
2018-04-26T03:59:44.436Z,67.64
2018-04-26T04:00:44.414Z,67.71
2018-04-26T04:01:44.527Z,66.96
2018-04-26T04:03:05.115Z,67.13
2018-04-26T04:03:48.664Z,67.5
2018-04-26T04:04:44.558Z,67.67
2018-04-26T04:05:44.348Z,67.74
2018-04-26T04:06:44.287Z,68.18
2018-04-26T04:07:44.565Z,68.1
2018-04-26T04:08:44.188Z,68.22
2018-04-26T04:09:44.151Z,68.32
2018-04-26T04:10:44.221Z,68.48
2018-04-26T04:11:45.820Z,68.38
2018-04-26T04:12:43.999Z,68.49
2018-04-26T04:13:46.631Z,68.41
2018-04-26T04:14:53.941Z,67.7
2018-04-26T04:15:44.256Z,67.87
2018-04-26T04:16:44.059Z,67.59
2018-04-26T04:17:44.768Z,67.55
2018-04-26T04:18:44.641Z,67.14
2018-04-26T04:19:46.427Z,67.3
2018-04-26T04:20:44.037Z,66.52
2018-04-26T04:22:06.441Z,66.54
2018-04-26T04:22:44.869Z,66.11
2018-04-26T04:23:44.171Z,66.41
2018-04-26T04:24:44.069Z,66.34
2018-04-26T04:25:44.339Z,66.39
2018-04-26T04:26:44.117Z,66.43
2018-04-26T04:27:44.217Z,66.71
2018-04-26T04:28:44.620Z,66.71
2018-04-26T04:29:46.770Z,66.89
2018-04-26T04:30:44.417Z,66.69
2018-04-26T04:31:44.636Z,66.55
2018-04-26T04:32:44.939Z,66.91
2018-04-26T04:33:44.034Z,66.82
2018-04-26T04:34:44.265Z,66.9
2018-04-26T04:35:44.447Z,66.73
2018-04-26T04:36:44.117Z,66.6
2018-04-26T04:37:45.578Z,67.14
2018-04-26T04:38:43.975Z,67.16
2018-04-26T04:39:44.075Z,67.37
2018-04-26T04:40:44.491Z,67.17
2018-04-26T04:41:44.601Z,66.93
2018-04-26T04:42:45.660Z,67.19
2018-04-26T04:43:45.833Z,67.39
2018-04-26T04:44:44.007Z,67.36
2018-04-26T04:45:44.935Z,67.58
2018-04-26T04:46:44.151Z,67.65
2018-04-26T04:48:02.375Z,67.66
2018-04-26T04:48:45.152Z,67.95
2018-04-26T04:49:49.869Z,68
2018-04-26T04:50:44.554Z,68.02
2018-04-26T04:51:45.484Z,67.85
2018-04-26T04:52:47.232Z,67.76
2018-04-26T04:53:45.323Z,67.44
2018-04-26T04:54:44.123Z,67.46
2018-04-26T04:55:44.204Z,67.63
2018-04-26T04:56:44.070Z,67.66
2018-04-26T04:57:44.394Z,67.54
2018-04-26T04:58:48.542Z,67.92
2018-04-26T04:59:44.732Z,68.13
2018-04-26T05:00:44.273Z,67.95
2018-04-26T05:01:44.422Z,68.42
2018-04-26T05:02:44.837Z,68.26
2018-04-26T05:03:44.227Z,68.36
2018-04-26T05:04:45.566Z,68.52
2018-04-26T05:05:44.451Z,68.67
2018-04-26T05:06:44.410Z,68.99
2018-04-26T05:07:44.159Z,68.59
2018-04-26T05:08:44.110Z,68.72
2018-04-26T05:09:44.681Z,69.09
2018-04-26T05:10:44.995Z,69.13
2018-04-26T05:11:44.030Z,69.4
2018-04-26T05:12:44.149Z,69.29
2018-04-26T05:13:45.064Z,69.21
2018-04-26T05:14:47.991Z,69.21
2018-04-26T05:15:44.436Z,69.54
2018-04-26T05:16:44.018Z,69.34
2018-04-26T05:17:44.214Z,68.44
2018-04-26T05:18:44.353Z,68.31
2018-04-26T05:19:44.988Z,68.39
2018-04-26T05:20:44.009Z,68.44
2018-04-26T05:21:44.373Z,68.56
2018-04-26T05:22:44.672Z,68.33
2018-04-26T05:23:44.333Z,68.71
2018-04-26T05:24:44.885Z,68.69
2018-04-26T05:25:45.044Z,68.39
2018-04-26T05:26:44.158Z,68.58
2018-04-26T05:27:44.807Z,68.72
2018-04-26T05:28:45.119Z,68.21
2018-04-26T05:29:44.354Z,68.33
2018-04-26T05:30:45.136Z,68.37
2018-04-26T05:32:04.122Z,68.57
2018-04-26T05:32:44.330Z,67.84
2018-04-26T05:33:46.065Z,68.13
2018-04-26T05:34:44.964Z,67.91
2018-04-26T05:35:44.553Z,68.53
2018-04-26T05:36:44.119Z,68.62
2018-04-26T05:37:44.395Z,68.26
2018-04-26T05:38:44.684Z,68.55
2018-04-26T05:39:59.739Z,68.49
2018-04-26T05:40:44.482Z,68.06
2018-04-26T05:41:44.005Z,68.57
2018-04-26T05:42:44.433Z,68.26
2018-04-26T05:43:45.305Z,67.94
2018-04-26T05:44:47.568Z,68.1
2018-04-26T05:45:49.251Z,68.55
2018-04-26T05:46:44.635Z,68.37
2018-04-26T05:47:44.151Z,68.2
2018-04-26T05:48:55.830Z,68.65
2018-04-26T05:49:45.979Z,68.67
2018-04-26T05:50:45.066Z,68.79
2018-04-26T05:51:44.303Z,68.83
2018-04-26T05:52:44.072Z,68.77
2018-04-26T05:53:44.767Z,68.73
2018-04-26T05:54:44.887Z,68.87
2018-04-26T05:55:44.338Z,68.62
2018-04-26T05:56:44.040Z,68.56
2018-04-26T05:57:45.044Z,68.48
2018-04-26T05:58:44.073Z,68.75
2018-04-26T05:59:45.250Z,68.71
2018-04-26T06:00:45.653Z,68.79
2018-04-26T06:01:44.160Z,68.86
2018-04-26T06:02:44.048Z,68.65
2018-04-26T06:03:47.613Z,68.98
2018-04-26T06:04:44.780Z,68.49
2018-04-26T06:05:44.134Z,68.47
2018-04-26T06:06:44.398Z,68.57
2018-04-26T06:07:45.187Z,68.25
2018-04-26T06:08:45.704Z,68.2
2018-04-26T06:09:44.303Z,68.39
2018-04-26T06:10:44.315Z,67.37
2018-04-26T06:11:45.108Z,67.88
2018-04-26T06:12:44.550Z,67.8
2018-04-26T06:13:44.333Z,67.6
2018-04-26T06:14:44.729Z,67.66
2018-04-26T06:15:45.166Z,67.93
2018-04-26T06:16:48.093Z,67.72
2018-04-26T06:17:47.618Z,67.3
2018-04-26T06:18:44.548Z,67.06
2018-04-26T06:19:46.491Z,66.95
2018-04-26T06:20:46.956Z,66.85
2018-04-26T06:21:44.184Z,67.08
2018-04-26T06:22:44.166Z,67.48
2018-04-26T06:23:45.906Z,66.77
2018-04-26T06:24:46.228Z,67.01
2018-04-26T06:25:44.332Z,67.2
2018-04-26T06:26:44.728Z,67
2018-04-26T06:27:47.101Z,66.87
2018-04-26T06:28:45.533Z,66.54
2018-04-26T12:32:08.259Z,39.35
2018-04-26T12:33:08.695Z,38.51
2018-04-26T12:34:08.769Z,35.97
2018-04-26T12:35:08.713Z,36.64
2018-04-26T12:36:08.288Z,36.98
2018-04-26T12:37:08.253Z,36.8
2018-04-26T12:38:08.400Z,37.27
2018-04-26T12:39:08.337Z,36.19
2018-04-26T12:40:08.409Z,36.23
2018-04-26T12:41:08.246Z,36.47
2018-04-26T12:42:08.673Z,36.51
2018-04-26T12:43:08.265Z,36.05
2018-04-26T12:44:08.746Z,35.26
2018-04-26T12:45:08.468Z,35.97
2018-04-26T12:46:08.282Z,35.9
2018-04-26T12:47:08.280Z,35.67
2018-04-26T12:48:08.309Z,35.69
2018-04-26T12:49:08.282Z,35.78
2018-04-26T12:50:08.273Z,35.7
2018-04-26T12:51:08.269Z,36.1
2018-04-26T12:52:08.309Z,36.7
2018-04-26T12:53:08.326Z,36.39
2018-04-26T12:54:08.327Z,36.5
2018-04-26T12:55:08.252Z,37.41
2018-04-26T12:56:08.414Z,37.05
2018-04-26T12:57:08.270Z,36.91
2018-04-26T12:58:08.536Z,36.77
2018-04-26T12:59:08.291Z,36.33
2018-04-26T13:00:08.304Z,35.15
2018-04-26T13:01:08.458Z,36.23
2018-04-26T13:02:08.599Z,36.34
2018-04-26T13:03:08.291Z,35.54
2018-04-26T13:04:08.344Z,35.05
2018-04-26T13:05:08.301Z,34.79
2018-04-26T13:06:08.290Z,35.09
2018-04-26T13:07:08.495Z,35.03
2018-04-26T13:08:08.451Z,35.65
2018-04-26T13:09:08.309Z,35.73
2018-04-26T13:10:08.403Z,35.97
2018-04-26T13:11:08.305Z,36.33
2018-04-26T13:12:08.324Z,36.86
2018-04-26T13:13:08.419Z,36.75
2018-04-26T13:14:08.298Z,37.88
2018-04-26T13:15:08.317Z,36.96
2018-04-26T13:16:08.307Z,36.72
2018-04-26T13:17:08.480Z,36.58
2018-04-26T13:18:08.454Z,37.03
2018-04-26T13:19:08.384Z,37.58
2018-04-26T13:20:08.510Z,36.6
2018-04-26T13:21:08.925Z,36.18
2018-04-26T13:22:08.496Z,36.18
2018-04-26T13:23:08.314Z,36.14
2018-04-26T13:24:08.328Z,35.3
2018-04-26T13:25:08.345Z,34.17
2018-04-26T13:26:08.313Z,34.81
2018-04-26T13:27:08.896Z,35.22
2018-04-26T13:28:08.430Z,33.44
2018-04-26T13:29:08.332Z,33.89
2018-04-26T13:30:08.343Z,34.35
2018-04-26T13:31:08.502Z,33.4
2018-04-26T13:32:08.310Z,33.53
2018-04-26T13:33:08.393Z,33.5
2018-04-26T13:34:08.407Z,33.21
2018-04-26T13:35:08.315Z,32.39
2018-04-26T13:36:08.500Z,32.16
2018-04-26T13:47:49.611Z,34.12
2018-04-26T13:48:49.833Z,34.38
2018-04-26T13:49:49.852Z,34.74
2018-04-26T13:50:49.645Z,35.03
2018-04-26T13:51:49.663Z,35.05
2018-04-26T13:52:49.604Z,34.82
2018-04-26T13:53:49.619Z,34.94
2018-04-26T13:54:49.652Z,34.61
2018-04-26T13:55:49.999Z,34.86
2018-04-26T13:56:49.623Z,34.66
2018-04-26T13:57:49.628Z,34.34
2018-04-26T13:58:49.619Z,34.13
2018-04-26T13:59:49.638Z,33.46
2018-04-26T14:00:49.691Z,33.7
2018-04-26T14:01:49.634Z,33.86
2018-04-26T14:02:49.673Z,33.95
2018-04-26T14:03:49.632Z,34.85
2018-04-26T14:04:49.834Z,34.85
2018-04-26T14:05:49.778Z,35.04
2018-04-26T14:06:49.615Z,34.89
2018-04-26T14:07:49.650Z,34.8
2018-04-26T14:08:49.637Z,35.29
2018-04-26T14:09:49.686Z,35.2
2018-04-26T14:10:49.806Z,35.02
2018-04-26T14:11:49.667Z,35.5
2018-04-26T14:12:49.627Z,35.61
2018-04-26T14:13:49.635Z,35.32
2018-04-26T14:14:49.880Z,33.38
2018-04-26T14:15:49.899Z,34.41
2018-04-26T14:16:49.830Z,34.19
2018-04-26T14:17:49.670Z,33.8
2018-04-26T14:18:57.052Z,33.84
2018-04-26T14:19:49.845Z,34.2
2018-04-26T14:20:49.700Z,34.94
2018-04-26T14:21:49.675Z,34.79
2018-04-26T14:22:49.682Z,35.34
2018-04-26T14:23:49.698Z,34.67
2018-04-26T14:24:49.633Z,34.82
2018-04-26T14:25:49.777Z,35.02
2018-04-26T14:26:49.887Z,35.38
2018-04-26T14:27:49.646Z,36.02
2018-04-26T14:28:49.646Z,36.21
2018-04-26T14:29:50.038Z,36.27
2018-04-26T14:30:49.747Z,36.79
2018-04-26T14:31:49.778Z,35.51
2018-04-26T14:32:49.648Z,35.62
2018-04-26T14:33:49.752Z,35.62
2018-04-26T14:34:49.742Z,36.32
2018-04-26T14:35:49.698Z,35.82
2018-04-26T14:36:50.071Z,35.9
2018-04-26T14:37:49.690Z,35.27
2018-04-26T14:38:49.692Z,35.63
2018-04-26T14:39:49.669Z,34.97
2018-04-26T14:40:49.755Z,34.38
2018-04-26T14:41:49.710Z,34.51
2018-04-26T14:42:49.646Z,35.43
2018-04-26T14:43:49.660Z,34.42
2018-04-26T14:44:49.686Z,34.21
2018-04-26T14:45:49.968Z,33.77
2018-04-26T14:46:49.676Z,34.25
2018-04-26T14:47:49.654Z,34.81
2018-04-26T14:48:49.718Z,34.59
2018-04-26T14:49:50.359Z,34.62
2018-04-26T14:50:49.681Z,33.71
2018-04-26T14:51:49.692Z,33.82
2018-04-26T14:52:49.672Z,34.19
2018-04-26T14:53:49.771Z,34.62
2018-04-26T14:54:49.980Z,34.82
2018-04-26T14:55:49.682Z,34.7
2018-04-26T14:56:49.938Z,34.48
2018-04-26T14:57:49.672Z,34.57
2018-04-26T14:58:49.797Z,34.66
2018-04-26T14:59:50.019Z,35.15
2018-04-26T15:00:49.807Z,35.82
2018-04-26T15:01:49.722Z,35.59
2018-04-26T15:02:49.783Z,35.13
2018-04-26T15:03:49.670Z,34.88
2018-04-26T15:04:50.079Z,34.53
2018-04-26T15:05:49.712Z,35.14
2018-04-26T15:06:49.722Z,35.03
2018-04-26T15:07:49.769Z,34.87
2018-04-26T15:08:49.674Z,34.72
2018-04-26T15:09:49.781Z,34.95
2018-04-26T15:10:49.741Z,34.68
2018-04-26T15:11:49.708Z,35.13
2018-04-26T15:12:49.733Z,35.28
2018-04-26T15:13:49.710Z,35.45
2018-04-26T15:14:49.701Z,34.79
2018-04-26T15:15:49.697Z,35.09
2018-04-26T15:16:49.932Z,34.68
2018-04-26T15:17:49.674Z,34.93
2018-04-26T15:18:49.775Z,35.51
2018-04-26T15:19:49.879Z,34.65
2018-04-26T15:20:49.797Z,34.07
2018-04-26T15:21:49.761Z,34.07
2018-04-26T15:22:49.701Z,34.02
2018-04-26T15:23:49.792Z,34.54
2018-04-26T15:24:50.005Z,34.73
2018-04-26T15:25:49.695Z,34.56
2018-04-26T15:26:49.996Z,34.65
2018-04-26T15:27:49.701Z,34.82
2018-04-26T15:28:49.731Z,34.56
2018-04-26T15:29:50.059Z,35.09
2018-04-26T15:30:49.823Z,33.78
2018-04-26T15:31:50.176Z,34.76
2018-04-26T15:32:49.790Z,34.23
2018-04-26T15:33:49.976Z,34.78
2018-04-26T15:34:49.759Z,34.44
2018-04-26T15:35:50.573Z,34.59
2018-04-26T15:36:49.763Z,33.81
2018-04-26T15:37:49.701Z,34.56
2018-04-26T15:38:49.973Z,34.6
2018-04-26T15:39:49.688Z,34.1
2018-04-26T15:40:49.729Z,34.57
2018-04-26T15:41:49.859Z,34.76
2018-04-26T15:42:49.785Z,34.93
2018-04-26T15:43:49.710Z,34.21
2018-04-26T15:44:49.713Z,34.6
2018-04-26T15:45:50.240Z,34.88
2018-04-26T15:46:50.043Z,34.73
2018-04-26T15:47:49.791Z,34.99
2018-04-26T15:48:49.731Z,34.27
2018-04-26T15:49:49.858Z,34.9
2018-04-26T15:50:49.711Z,34.38
2018-04-26T15:51:50.103Z,33.85
2018-04-26T15:52:49.797Z,34.08
2018-04-26T15:53:49.777Z,34.45
2018-04-26T15:54:49.762Z,34.71
2018-04-26T15:55:49.720Z,34.04
2018-04-26T15:56:49.706Z,34.42
2018-04-26T15:57:49.730Z,33.78
2018-04-26T15:58:49.746Z,33.49
2018-04-26T15:59:49.673Z,34.26
2018-04-26T16:00:49.712Z,33.44
2018-04-26T16:01:50.172Z,33.86
2018-04-26T16:02:50.143Z,34.36
2018-04-26T16:03:49.740Z,33.05
2018-04-26T16:04:49.854Z,33.69
2018-04-26T16:05:49.961Z,32.92
2018-04-26T16:06:49.864Z,32.83
2018-04-26T16:07:49.742Z,33.2
2018-04-26T16:08:49.836Z,32.77
2018-04-26T16:09:49.686Z,32.15
2018-04-26T16:10:49.769Z,32.68
2018-04-26T16:11:49.798Z,32.99
2018-04-26T16:12:50.615Z,33.24
2018-04-26T16:13:50.065Z,33.79
2018-04-26T16:14:49.821Z,33.62
2018-04-26T16:15:49.697Z,33.6
2018-04-26T16:16:50.075Z,33.65
2018-04-26T16:17:50.134Z,33.63
2018-04-26T16:18:49.743Z,33.99
2018-04-26T16:19:49.952Z,33.67
2018-04-26T16:20:49.835Z,33.44
2018-04-26T16:21:49.862Z,33.61
2018-04-26T16:22:49.712Z,33.15
2018-04-26T16:23:50.431Z,33.7
2018-04-26T16:24:50.131Z,33.6
2018-04-26T16:25:49.797Z,33.41
2018-04-26T16:26:49.739Z,32.61
2018-04-26T16:27:49.879Z,33.55
2018-04-26T16:28:49.767Z,33.53
2018-04-26T16:29:49.724Z,33.3
2018-04-26T16:30:50.031Z,33.13
2018-04-26T16:31:50.047Z,33.22
2018-04-26T16:32:50.185Z,33.39
2018-04-26T16:33:50.163Z,33.55
2018-04-26T16:34:49.863Z,33.1
2018-04-26T16:35:49.831Z,32.99
2018-04-26T16:36:49.992Z,33.62
2018-04-26T16:37:49.748Z,33.34
2018-04-26T16:38:50.292Z,33.43
2018-04-26T16:39:49.806Z,33.6
2018-04-26T16:40:49.748Z,33.7
2018-04-26T16:41:49.779Z,33.74
2018-04-26T16:42:50.046Z,33.94
2018-04-26T16:43:50.194Z,33.95
2018-04-26T16:44:49.794Z,34.05
2018-04-26T16:45:49.760Z,33.79
2018-04-26T16:46:49.814Z,33.94
2018-04-26T16:47:49.805Z,34.49
2018-04-26T16:48:49.759Z,33.13
2018-04-26T16:49:49.954Z,33.1
2018-04-26T16:50:49.961Z,33.85
2018-04-26T16:51:49.848Z,33.22
2018-04-26T16:52:49.752Z,33.1
2018-04-26T16:53:49.860Z,33.17
2018-04-26T16:54:49.867Z,33.99
2018-04-26T16:55:50.325Z,33.56
2018-04-26T16:56:49.868Z,33.73
2018-04-26T16:57:49.795Z,34.34
2018-04-26T16:58:49.849Z,34.58
2018-04-26T16:59:50.373Z,34.05
2018-04-26T17:00:49.936Z,33.52
2018-04-26T17:01:49.911Z,34.26
2018-04-26T17:02:50.152Z,34.33
2018-04-26T17:03:49.868Z,33.81
2018-04-26T17:04:51.230Z,33.31
2018-04-26T17:05:50.170Z,33.76
2018-04-26T17:06:49.813Z,34.47
2018-04-26T17:07:49.810Z,34.7
2018-04-26T17:08:49.767Z,34.55
2018-04-26T17:09:49.819Z,34.26
2018-04-26T17:10:49.841Z,34.77
2018-04-26T17:11:50.244Z,35.05
2018-04-26T17:12:49.804Z,34.96
2018-04-26T17:13:50.321Z,34.74
2018-04-26T17:14:49.811Z,34.18
2018-04-26T17:15:50.346Z,33.63
2018-04-26T17:16:50.964Z,33.98
2018-04-26T17:17:49.760Z,33.99
2018-04-26T17:18:50.153Z,34.27
2018-04-26T17:19:49.814Z,34.4
2018-04-26T17:20:50.007Z,33.99
2018-04-26T17:21:52.790Z,34.15
2018-04-26T17:22:49.912Z,34.29
2018-04-26T17:23:49.833Z,34.67
2018-04-26T17:24:50.100Z,35.19
2018-04-26T17:25:50.313Z,34.62
2018-04-26T17:26:49.995Z,35.13
2018-04-26T17:27:50.133Z,34.84
2018-04-26T17:28:49.806Z,34.79
2018-04-26T17:29:50.110Z,34.34
2018-04-26T17:30:50.341Z,34.42
2018-04-26T17:31:49.872Z,34.24
2018-04-26T17:32:49.841Z,34.6
2018-04-26T17:33:49.756Z,34.69
2018-04-26T17:34:50.745Z,34.79
2018-04-26T17:35:50.019Z,34.94
2018-04-26T17:36:49.875Z,35.2
2018-04-26T17:40:15.519Z,35.65
2018-04-26T17:41:15.087Z,35.74
2018-04-26T17:42:15.565Z,35.8
2018-04-26T17:43:15.245Z,35.88
2018-04-26T17:44:15.032Z,36.08
2018-04-26T17:45:15.043Z,36.16
2018-04-26T17:46:15.745Z,36.04
2018-04-26T17:47:15.332Z,35.84
2018-04-26T17:48:16.293Z,36.13
2018-04-26T17:49:15.191Z,36.19
2018-04-26T17:50:15.039Z,36.39
2018-04-26T17:51:15.243Z,36.5
2018-04-26T17:52:15.404Z,36.55
2018-04-26T17:53:15.285Z,36.76
2018-04-26T17:54:15.107Z,36.67
2018-04-26T17:55:15.022Z,36.69
2018-04-26T17:56:15.164Z,36.73
2018-04-26T17:57:15.196Z,36.73
2018-04-26T17:58:15.466Z,36.79
2018-04-26T17:59:15.015Z,36.94
2018-04-26T18:00:15.431Z,37.01
2018-04-26T18:01:15.355Z,36.8
2018-04-26T18:02:15.278Z,36.99
2018-04-26T18:03:15.052Z,36.91
2018-04-26T18:04:15.009Z,37.02
2018-04-26T18:05:15.069Z,36.67
2018-04-26T18:06:15.247Z,37.13
2018-04-26T18:07:15.200Z,37.15
2018-04-26T18:08:15.166Z,37.09
2018-04-26T18:09:15.275Z,37.17
2018-04-26T18:10:15.018Z,37.39
2018-04-26T18:11:15.326Z,37.5
2018-04-26T18:12:15.196Z,37.44
2018-04-26T18:13:15.122Z,37.4
2018-04-26T18:14:15.411Z,37.47
2018-04-26T18:15:15.837Z,37.55
2018-04-26T18:16:15.146Z,37.38
2018-04-26T18:17:15.031Z,37.49
2018-04-26T18:18:15.301Z,37.59
2018-04-26T18:19:15.119Z,37.38
2018-04-26T18:20:16.727Z,37.63
2018-04-26T18:21:15.357Z,37.72
2018-04-26T18:22:15.087Z,37.79
2018-04-26T18:23:15.397Z,38.17
2018-04-26T18:24:15.033Z,38.33
2018-04-26T18:25:15.551Z,38.6
2018-04-26T18:26:15.339Z,38.68
2018-04-26T18:27:15.733Z,38.88
2018-04-26T18:28:15.015Z,38.84
2018-04-26T18:29:15.029Z,38.95
2018-04-26T18:30:15.114Z,38.95
2018-04-26T18:31:15.429Z,39.05
2018-04-26T18:32:16.192Z,39.19
2018-04-26T18:33:15.074Z,39.27
2018-04-26T18:34:17.260Z,39.33
2018-04-26T18:35:15.304Z,39.5
2018-04-26T18:36:16.177Z,39.42
2018-04-26T18:37:15.019Z,39.39
2018-04-26T18:38:15.273Z,39.38
2018-04-26T18:39:15.389Z,39.64
2018-04-26T18:40:15.226Z,39.78
2018-04-26T18:41:15.228Z,40.04
2018-04-26T18:42:15.194Z,40.16
2018-04-26T18:43:15.427Z,40.19
2018-04-26T18:44:15.039Z,40.28
2018-04-26T18:45:15.232Z,40.45
2018-04-26T18:46:15.205Z,40.28
2018-04-26T18:47:15.280Z,40.31
2018-04-26T18:48:15.098Z,40.46
2018-04-26T18:49:15.204Z,40.61
2018-04-26T18:50:15.246Z,40.74
2018-04-26T18:51:15.324Z,41.21
2018-04-26T18:52:15.608Z,41.42
2018-04-26T18:53:16.520Z,41.55
2018-04-26T18:54:15.042Z,41.84
2018-04-26T18:55:15.049Z,41.97
2018-04-26T18:56:15.418Z,42.24
2018-04-26T18:57:15.712Z,42.15
2018-04-26T18:58:15.926Z,42.26
2018-04-26T18:59:15.187Z,42.41
2018-04-26T19:00:15.012Z,42.46
2018-04-26T19:01:15.442Z,42.9
2018-04-26T19:02:15.001Z,42.78
2018-04-26T19:03:15.345Z,43.05
2018-04-26T19:04:15.079Z,43.24
2018-04-26T19:05:15.110Z,43.11
2018-04-26T19:06:15.045Z,43.34
2018-04-26T19:07:15.122Z,43.69
2018-04-26T19:08:15.284Z,43.61
2018-04-26T19:09:15.011Z,43.99
2018-04-26T19:10:15.307Z,44.05
2018-04-26T19:11:15.106Z,44.04